Sumner, Michigan
Current Conditions -  °F | °C
As of 10:54 PM on Thursday 27 Nov 2014 (Local Time) from KAMN Reporting Station
Scattered Clouds Scattered Clouds  
Wind Chill:   Ceiling: Unl
Heat Index: 18°   Visibility: 10mi
Dew Point:   Wind: 9mph
Humidity: 66%   Direction: 300°WNW
Pressure: 30.33"   Gusts: 16mph
Location:  43.31°N, 84.82°W
Report Text: KAMN 280354Z AUTO 30008G14KT 10SM SCT033 M08/M13 A3033 RMK AO2 T10791132
Loading
Personal Weather Stations






























Interactive Weather Map New forecast layout! Learn more

10-Day Weather Forecast

Advertisements
Track Severe Weather on mobile